West Delray Beach, Florida
Current Conditions -  °F | °C
As of 3:55 PM on Saturday 27 Dec 2014 (Local Time) from KBCT Reporting Station
Overcast Overcast  
Wind Chill: 77°   Ceiling: 3400
Heat Index: 78°   Visibility: 10mi
Dew Point: 75°   Wind: 7mph
Humidity: 94%   Direction: NA
Pressure: 30.16"   Gusts: NA
Location:  26.4537°N, 80.2081°W
Report Text: KBCT 272055Z VRB06KT 10SM OVC034 25/24 A3016
Loading
Personal Weather Stations






























Interactive Weather Map New forecast layout! Learn more

10-Day Weather Forecast

Advertisements
Track Severe Weather on mobile